Accueil
METAR-TAF:

METAR-TAF

Aéroports :

Aéroport de Dole-Jura

Dole, France

latitude: 47-02-34N, longitude: 005-26-06E, altitude: 196 m

Observation

Le bulletin a été fait il y a 33 minutes, à 22:30 UTC
Vent 7 kt de nord/nord-est
Température 18°C
Humidité 77%
Pression 1021 hPa
Visibilité 10 km ou plus
pas de nuages en-dessous de 1500 mètres et pas de cumulonimbus.

METAR: LFGJ 172230Z AUTO 02007KT CAVOK 18/14 Q1021

Heure: 01:03 (23:03 UTC)

Prévision

Le bulletin a été fait il y a 9 heures et 3 minutes, à 14:00 UTC
Prévision valable du 17 à 15 UTC au 17 à 24 UTC
Vent 8 kt de nord-ouest
Visibilité 10 km ou plus
Quelques nuages à une hauteur de 4000 ft
Nuages fragmentés à une hauteur de 6000 ft
Probabilité 30% :
Temporairement
du 17 à 15 UTC au 17 à 18 UTC
Quelques nuages à une hauteur de 4000 ft, Cumulonimbus.
faibles averses de pluie

TAF: LFGJ 171400Z 1715/1724 32008KT 9999 FEW040 BKN060 PROB30 TEMPO 1715/1718 -SHRA FEW040CB

Observations et prévisions météorologiques de plus de 4000 aéroports (messages METAR et TAF).

Les stations disponibles sont représentées par des disques jaunes et rouges sur la carte.

Passer la souris dessus pour voir le nom de la station.

Cliquer dessus pour voir les observations et prévisions météorologiques.

Pour changer de carte: cliquez sur les boutons verts avec une croix noire pour zoomer, sur le bouton vert avec un tiret pour effectuer un zoom arrière, ou sur les flèches vertes pour les cartes adjacentes.


METAR-TAF: